Time;durP1;ratioP1;P1;durP2;ratioP2;P2;SDS_P1;SDS_P2;PMS_P1;PMS_P2;Temp;Humidity;BMP_temperature;BMP_pressure;BME280_temperature;BME280_humidity;BME280_pressure;Samples;Min_cycle;Max_cycle;Signal;HPM_P1;HPM_P2
2023/04/17 00:00:14;;;;;;;18.00;14.00;;;9.90;99.90;;;;;;5015262;28;20038;-83
2023/04/17 00:02:40;;;;;;;21.80;15.55;;;9.90;99.90;;;;;;5018613;28;20021;-80
2023/04/17 00:05:09;;;;;;;23.92;16.15;;;9.80;99.90;;;;;;5013070;28;20459;-82
2023/04/17 00:07:37;;;;;;;18.20;12.57;;;9.70;99.90;;;;;;5011745;28;20093;-82
2023/04/17 00:10:05;;;;;;;18.17;13.18;;;9.80;99.90;;;;;;5015626;28;20053;-82
2023/04/17 00:12:31;;;;;;;18.40;12.88;;;9.80;99.90;;;;;;5014097;28;20053;-83
2023/04/17 00:14:56;;;;;;;17.25;11.73;;;9.80;99.90;;;;;;5019272;28;20043;-82
2023/04/17 00:17:22;;;;;;;19.80;12.90;;;9.80;99.90;;;;;;5016134;28;20033;-82
2023/04/17 00:19:49;;;;;;;18.63;12.07;;;9.80;99.90;;;;;;5018623;28;20047;-83
2023/04/17 00:22:14;;;;;;;16.80;12.18;;;9.80;99.90;;;;;;5015807;28;20079;-80
2023/04/17 00:24:40;;;;;;;18.35;13.27;;;9.80;99.90;;;;;;5014568;28;20247;-82
2023/04/17 00:27:05;;;;;;;20.00;14.32;;;9.80;99.90;;;;;;5014398;28;20026;-84
2023/04/17 00:29:32;;;;;;;20.10;13.23;;;9.80;99.90;;;;;;5015253;28;20508;-81
2023/04/17 00:31:58;;;;;;;19.85;13.57;;;9.70;99.90;;;;;;5018798;28;20057;-78
2023/04/17 00:34:24;;;;;;;16.92;12.38;;;9.70;99.90;;;;;;5015862;28;20801;-83
2023/04/17 00:36:49;;;;;;;15.40;11.90;;;9.70;99.90;;;;;;5013962;28;20499;-81
2023/04/17 00:39:15;;;;;;;16.30;11.23;;;9.70;99.90;;;;;;5014041;28;20442;-79
2023/04/17 00:41:41;;;;;;;19.77;13.35;;;9.70;99.90;;;;;;5000351;28;20030;-80
2023/04/17 00:44:06;;;;;;;18.60;12.38;;;9.80;99.90;;;;;;5013749;28;20364;-83
2023/04/17 00:46:32;;;;;;;21.00;13.27;;;9.80;99.90;;;;;;5015768;28;20045;-82
2023/04/17 00:48:58;;;;;;;16.23;11.75;;;9.80;99.90;;;;;;5016169;28;20037;-83
2023/04/17 00:51:24;;;;;;;15.70;10.80;;;9.70;99.90;;;;;;5016737;28;20527;-82
2023/04/17 00:53:50;;;;;;;19.15;14.02;;;9.70;99.90;;;;;;5017203;28;20066;-82
2023/04/17 00:56:16;;;;;;;17.42;12.60;;;9.70;99.90;;;;;;5013359;28;20026;-80
2023/04/17 00:58:42;;;;;;;19.90;12.60;;;9.70;99.90;;;;;;5016848;28;20032;-80
2023/04/17 01:01:08;;;;;;;18.58;12.90;;;9.70;99.90;;;;;;5013873;28;20049;-83
2023/04/17 01:03:36;;;;;;;17.77;12.55;;;9.70;99.90;;;;;;5013222;28;20033;-82
2023/04/17 01:06:02;;;;;;;18.00;12.70;;;9.60;99.90;;;;;;5014026;28;20386;-82
2023/04/17 01:08:38;;;;;;;23.52;14.95;;;9.60;99.90;;;;;;5017278;28;20457;-80
2023/04/17 01:11:04;;;;;;;20.73;13.93;;;9.60;99.90;;;;;;5017535;28;20033;-83
2023/04/17 01:13:29;;;;;;;20.90;13.68;;;9.60;99.90;;;;;;5016778;28;20030;-81
2023/04/17 01:15:55;;;;;;;19.60;14.68;;;9.60;99.90;;;;;;5018216;28;20042;-82
2023/04/17 01:18:20;;;;;;;19.50;13.98;;;9.60;99.90;;;;;;5034461;28;20057;-82
2023/04/17 01:20:46;;;;;;;19.70;13.10;;;9.60;99.90;;;;;;5022317;28;20045;-83
2023/04/17 01:23:12;;;;;;;20.83;13.98;;;9.60;99.90;;;;;;5022578;28;20025;-82
2023/04/17 01:25:37;;;;;;;21.20;13.13;;;9.60;99.90;;;;;;5018269;28;20084;-84
2023/04/17 01:28:03;;;;;;;19.52;13.60;;;9.60;99.90;;;;;;5015685;28;20612;-82
2023/04/17 01:30:29;;;;;;;18.88;13.45;;;9.60;99.90;;;;;;5017636;28;20052;-82
2023/04/17 01:32:55;;;;;;;18.80;12.98;;;9.50;99.90;;;;;;5018950;28;20109;-82
2023/04/17 01:35:21;;;;;;;19.52;13.10;;;9.60;99.90;;;;;;5017456;28;20503;-82
2023/04/17 01:37:46;;;;;;;18.40;13.23;;;9.60;99.90;;;;;;5017671;28;20051;-82
2023/04/17 01:40:12;;;;;;;19.40;13.40;;;9.60;99.90;;;;;;5017103;28;20174;-82
2023/04/17 01:42:38;;;;;;;18.58;12.98;;;9.60;99.90;;;;;;5016269;28;20493;-83
2023/04/17 01:45:05;;;;;;;18.70;12.93;;;9.60;99.90;;;;;;5019082;28;20068;-84
2023/04/17 01:47:31;;;;;;;21.52;14.82;;;9.60;99.90;;;;;;5020964;28;20651;-82
2023/04/17 01:49:56;;;;;;;23.15;13.50;;;9.60;99.90;;;;;;5019727;28;20077;-83
2023/04/17 01:52:22;;;;;;;22.95;14.80;;;9.50;99.90;;;;;;5015658;28;20045;-82
2023/04/17 01:54:47;;;;;;;23.75;16.02;;;9.50;99.90;;;;;;5021646;28;20037;-82
2023/04/17 01:57:13;;;;;;;22.08;14.27;;;9.50;99.90;;;;;;5015114;28;20480;-82
2023/04/17 01:59:39;;;;;;;22.30;14.70;;;9.50;99.90;;;;;;5016877;28;20606;-83
2023/04/17 02:02:04;;;;;;;22.63;14.32;;;9.50;99.90;;;;;;5017286;28;20017;-82
2023/04/17 02:04:30;;;;;;;25.05;15.52;;;9.50;99.90;;;;;;5016805;28;20116;-83
2023/04/17 02:06:55;;;;;;;21.63;13.73;;;9.50;99.90;;;;;;5018549;28;20061;-82
2023/04/17 02:09:21;;;;;;;25.13;16.50;;;9.50;99.90;;;;;;5016238;28;20104;-82
2023/04/17 02:11:46;;;;;;;23.02;16.30;;;9.50;99.90;;;;;;5017606;28;20491;-82
2023/04/17 02:14:12;;;;;;;25.05;16.13;;;9.50;99.90;;;;;;5016950;28;20026;-82
2023/04/17 02:16:38;;;;;;;27.40;18.42;;;9.50;99.90;;;;;;5015595;28;20029;-82
2023/04/17 02:19:04;;;;;;;27.17;18.40;;;9.40;99.90;;;;;;5014289;28;20034;-83
2023/04/17 02:21:30;;;;;;;23.52;16.52;;;9.40;99.90;;;;;;5015873;28;20357;-83
2023/04/17 02:23:55;;;;;;;23.80;16.67;;;9.40;99.90;;;;;;5018048;28;20641;-83
2023/04/17 02:26:22;;;;;;;27.17;17.27;;;9.40;99.90;;;;;;5020300;28;20147;-83
2023/04/17 02:28:47;;;;;;;25.05;17.10;;;9.30;99.90;;;;;;5017776;28;20022;-82
2023/04/17 02:31:15;;;;;;;23.85;15.88;;;9.40;99.90;;;;;;5017948;28;20112;-82
2023/04/17 02:33:40;;;;;;;24.63;16.27;;;9.40;99.90;;;;;;5020499;28;20030;-81
2023/04/17 02:36:06;;;;;;;24.85;16.88;;;9.40;99.90;;;;;;5022152;28;20021;-83
2023/04/17 02:38:32;;;;;;;27.58;18.63;;;9.40;99.90;;;;;;5017598;28;20026;-82
2023/04/17 02:40:58;;;;;;;25.42;17.85;;;9.30;99.90;;;;;;5016061;28;20477;-81
2023/04/17 02:43:24;;;;;;;27.83;18.25;;;9.30;99.90;;;;;;5016374;28;20148;-81
2023/04/17 02:45:50;;;;;;;26.67;19.23;;;9.30;99.90;;;;;;5021366;28;20079;-81
2023/04/17 02:48:16;;;;;;;27.90;19.10;;;9.30;99.90;;;;;;5015891;28;20025;-82
2023/04/17 02:50:41;;;;;;;30.23;18.50;;;9.30;99.90;;;;;;5016365;28;22330;-82
2023/04/17 02:53:07;;;;;;;31.77;19.48;;;9.20;99.90;;;;;;5020839;28;20041;-82
2023/04/17 02:55:33;;;;;;;32.42;20.65;;;9.30;99.90;;;;;;5017017;28;20403;-81
2023/04/17 02:57:59;;;;;;;30.90;21.48;;;9.20;99.90;;;;;;5014464;28;20040;-83
2023/04/17 03:00:26;;;;;;;28.65;18.90;;;9.20;99.90;;;;;;5019811;28;20480;-79
2023/04/17 03:02:51;;;;;;;24.58;17.00;;;9.20;99.90;;;;;;5014454;28;20714;-82
2023/04/17 03:05:19;;;;;;;30.35;20.17;;;9.20;99.90;;;;;;5014427;28;20049;-81
2023/04/17 03:07:44;;;;;;;25.63;17.77;;;9.20;99.90;;;;;;5015003;28;20025;-82
2023/04/17 03:10:10;;;;;;;27.50;18.52;;;9.20;99.90;;;;;;5018007;28;20447;-83
2023/04/17 03:12:36;;;;;;;27.80;18.33;;;9.10;99.90;;;;;;5015526;28;20038;-82
2023/04/17 03:15:01;;;;;;;27.23;18.38;;;9.20;99.90;;;;;;5015452;28;20034;-82
2023/04/17 03:17:27;;;;;;;24.65;16.48;;;9.20;99.90;;;;;;5014339;28;20477;-82
2023/04/17 03:19:52;;;;;;;24.58;16.67;;;9.20;99.90;;;;;;5016084;28;20033;-82
2023/04/17 03:22:18;;;;;;;27.08;17.35;;;9.20;99.90;;;;;;5013871;28;20049;-81
2023/04/17 03:24:43;;;;;;;26.73;16.73;;;9.20;99.90;;;;;;5017354;28;20025;-81
2023/04/17 03:27:09;;;;;;;22.98;16.02;;;9.20;99.90;;;;;;5021166;28;20043;-82
2023/04/17 03:29:35;;;;;;;22.27;15.70;;;9.20;99.90;;;;;;5014069;28;20041;-81
2023/04/17 03:32:00;;;;;;;20.67;15.45;;;9.20;99.90;;;;;;5019321;28;20021;-82
2023/04/17 03:34:27;;;;;;;21.55;15.98;;;9.20;99.90;;;;;;5012678;28;20548;-81
2023/04/17 03:36:53;;;;;;;21.90;15.15;;;9.20;99.90;;;;;;5015251;28;20579;-81
2023/04/17 03:39:19;;;;;;;24.40;16.55;;;9.20;99.90;;;;;;5015164;28;20036;-81
2023/04/17 03:41:45;;;;;;;25.23;16.30;;;9.20;99.90;;;;;;5016246;28;20454;-81
2023/04/17 03:44:11;;;;;;;20.95;15.07;;;9.20;99.90;;;;;;5020406;28;20022;-80
2023/04/17 03:46:37;;;;;;;23.13;16.27;;;9.20;99.90;;;;;;5019097;28;20469;-82
2023/04/17 03:49:03;;;;;;;22.23;14.85;;;9.10;99.90;;;;;;5017764;28;20026;-80
2023/04/17 03:51:28;;;;;;;20.80;15.10;;;9.10;99.90;;;;;;5016566;28;20479;-81
2023/04/17 03:53:54;;;;;;;21.27;15.38;;;9.10;99.90;;;;;;5015052;28;20041;-82
2023/04/17 03:56:20;;;;;;;18.98;13.73;;;9.10;99.90;;;;;;5014999;28;20407;-82
2023/04/17 03:58:46;;;;;;;18.30;13.48;;;9.10;99.90;;;;;;5014529;28;20104;-81
2023/04/17 04:01:13;;;;;;;21.27;13.00;;;9.10;99.90;;;;;;5014808;28;20563;-82
2023/04/17 04:03:39;;;;;;;20.13;14.40;;;9.10;99.90;;;;;;5013602;28;20538;-81
2023/04/17 04:06:06;;;;;;;25.75;17.23;;;9.20;99.90;;;;;;5019525;28;20026;-83
2023/04/17 04:08:31;;;;;;;24.75;16.20;;;9.10;99.90;;;;;;5014816;28;20017;-81
2023/04/17 04:10:58;;;;;;;23.70;15.25;;;9.10;99.90;;;;;;5028760;28;20053;-81
2023/04/17 04:13:24;;;;;;;25.58;15.77;;;9.10;99.90;;;;;;5015610;28;20025;-82
2023/04/17 04:15:50;;;;;;;26.63;16.40;;;9.10;99.90;;;;;;5015302;28;20145;-81
2023/04/17 04:18:16;;;;;;;27.58;16.95;;;9.00;99.90;;;;;;5019514;28;20054;-81
2023/04/17 04:20:41;;;;;;;26.58;16.75;;;9.00;99.90;;;;;;5014964;28;20473;-81
2023/04/17 04:23:07;;;;;;;23.90;16.35;;;9.00;99.90;;;;;;5014609;28;20021;-81
2023/04/17 04:25:33;;;;;;;23.50;15.43;;;9.00;99.90;;;;;;5019037;28;20040;-81
2023/04/17 04:28:00;;;;;;;23.40;15.45;;;9.00;99.90;;;;;;5013973;28;20034;-82
2023/04/17 04:30:26;;;;;;;20.95;14.38;;;9.00;99.90;;;;;;5018373;28;20119;-82
2023/04/17 04:32:52;;;;;;;21.35;13.40;;;9.10;99.90;;;;;;5015755;28;20037;-81
2023/04/17 04:35:17;;;;;;;20.40;12.88;;;9.10;99.90;;;;;;5013269;28;20872;-82
2023/04/17 04:37:45;;;;;;;20.60;14.23;;;9.10;99.90;;;;;;5019482;28;20026;-80
2023/04/17 04:40:12;;;;;;;24.00;15.98;;;9.10;99.90;;;;;;5018365;28;20034;-83
2023/04/17 04:42:41;;;;;;;22.55;15.38;;;9.10;99.90;;;;;;5013161;28;20030;-81
2023/04/17 04:45:08;;;;;;;20.85;14.32;;;9.10;99.90;;;;;;5021645;28;20113;-80
2023/04/17 04:47:35;;;;;;;25.50;15.88;;;9.10;99.90;;;;;;5020717;28;20048;-81
2023/04/17 04:50:01;;;;;;;21.27;14.55;;;9.10;99.90;;;;;;5014687;28;20041;-83
2023/04/17 04:52:26;;;;;;;21.52;15.23;;;9.10;99.90;;;;;;5016854;28;20037;-82
2023/04/17 04:54:53;;;;;;;24.10;16.17;;;9.10;99.90;;;;;;5016565;28;20030;-80
2023/04/17 04:57:18;;;;;;;23.95;16.33;;;9.10;99.90;;;;;;5016435;28;20033;-81
2023/04/17 04:59:44;;;;;;;22.50;15.18;;;9.00;99.90;;;;;;5016053;28;20036;-81
2023/04/17 05:02:09;;;;;;;22.42;15.15;;;9.00;99.90;;;;;;5019128;28;20040;-83
2023/04/17 05:04:35;;;;;;;19.02;13.50;;;9.00;99.90;;;;;;5022177;28;20120;-80
2023/04/17 05:07:03;;;;;;;22.60;16.17;;;9.00;99.90;;;;;;5015957;28;20029;-82
2023/04/17 05:09:30;;;;;;;26.90;17.98;;;9.00;99.90;;;;;;5015600;28;22297;-81
2023/04/17 05:11:56;;;;;;;23.35;16.15;;;9.00;99.90;;;;;;5016393;28;20046;-82
2023/04/17 05:14:22;;;;;;;21.92;14.88;;;9.00;99.90;;;;;;5016260;28;20037;-81
2023/04/17 05:16:47;;;;;;;26.02;15.18;;;9.10;99.90;;;;;;5016391;28;20033;-81
2023/04/17 05:19:13;;;;;;;23.35;14.73;;;9.10;99.90;;;;;;5017834;28;20049;-83
2023/04/17 05:21:38;;;;;;;22.50;14.77;;;9.10;99.90;;;;;;5021399;28;20551;-81
2023/04/17 05:24:04;;;;;;;22.73;15.65;;;9.00;99.90;;;;;;5021408;28;20044;-81
2023/04/17 05:26:29;;;;;;;23.77;16.42;;;9.10;99.90;;;;;;5016864;28;20041;-81
2023/04/17 05:28:55;;;;;;;25.60;16.00;;;9.00;99.90;;;;;;5016760;28;20050;-81
2023/04/17 05:31:21;;;;;;;26.85;18.05;;;9.10;99.90;;;;;;5021250;28;20064;-80
2023/04/17 05:33:46;;;;;;;25.88;17.98;;;9.00;99.90;;;;;;5017158;28;20527;-81
2023/04/17 05:36:12;;;;;;;30.92;19.83;;;9.00;99.90;;;;;;5015253;28;20025;-82
2023/04/17 05:38:37;;;;;;;29.52;17.83;;;9.00;99.90;;;;;;5019968;28;20032;-82
2023/04/17 05:41:06;;;;;;;25.73;17.13;;;9.00;99.90;;;;;;5008934;28;20473;-81
2023/04/17 05:43:32;;;;;;;26.33;16.67;;;9.00;99.90;;;;;;5015110;28;20035;-80
2023/04/17 05:45:57;;;;;;;26.02;17.42;;;9.10;99.90;;;;;;5017015;28;20045;-80
2023/04/17 05:48:23;;;;;;;23.98;15.77;;;9.10;99.90;;;;;;5020156;28;20025;-81
2023/04/17 05:50:49;;;;;;;21.60;14.40;;;9.10;99.90;;;;;;5020693;28;20497;-81
2023/04/17 05:53:14;;;;;;;21.83;15.02;;;9.20;99.90;;;;;;5014365;28;20038;-81
2023/04/17 05:55:40;;;;;;;23.15;15.27;;;9.20;99.90;;;;;;5013511;28;20033;-82
2023/04/17 05:58:06;;;;;;;23.55;15.27;;;9.20;99.90;;;;;;5016014;28;20033;-82
2023/04/17 06:00:31;;;;;;;22.27;14.48;;;9.20;99.90;;;;;;5014857;28;20063;-80
2023/04/17 06:02:58;;;;;;;21.85;14.43;;;9.20;99.90;;;;;;5014494;28;20125;-80
2023/04/17 06:05:23;;;;;;;25.83;17.27;;;9.20;99.90;;;;;;5016464;28;20722;-81
2023/04/17 06:07:49;;;;;;;24.63;16.45;;;9.30;99.90;;;;;;5020169;28;20041;-80
2023/04/17 06:10:14;;;;;;;26.13;16.35;;;9.30;99.90;;;;;;5013803;28;20038;-80
2023/04/17 06:12:40;;;;;;;26.33;17.58;;;9.30;99.90;;;;;;5012960;28;20046;-81
2023/04/17 06:15:09;;;;;;;24.80;17.25;;;9.30;99.90;;;;;;5020052;28;20044;-81
2023/04/17 06:17:36;;;;;;;24.80;17.15;;;9.30;99.90;;;;;;5013887;28;20494;-81
2023/04/17 06:20:05;;;;;;;27.55;18.73;;;9.30;99.90;;;;;;5016000;28;20033;-82
2023/04/17 06:22:31;;;;;;;24.88;16.95;;;9.30;99.90;;;;;;5017181;28;20029;-83
2023/04/17 06:24:57;;;;;;;22.55;16.38;;;9.30;99.90;;;;;;5014047;28;20037;-82
2023/04/17 06:27:22;;;;;;;22.42;16.02;;;9.30;99.90;;;;;;5014902;28;20033;-82
2023/04/17 06:29:48;;;;;;;23.63;16.40;;;9.30;99.90;;;;;;5020611;28;20033;-81
2023/04/17 06:32:14;;;;;;;28.88;17.70;;;9.30;99.90;;;;;;5016004;28;20022;-81
2023/04/17 06:34:39;;;;;;;25.17;16.92;;;9.40;99.90;;;;;;5020161;28;20139;-80
2023/04/17 06:37:05;;;;;;;24.15;16.50;;;9.40;99.90;;;;;;5020091;28;20108;-80
2023/04/17 06:39:31;;;;;;;21.25;15.30;;;9.40;99.90;;;;;;5020132;28;20061;-82
2023/04/17 06:41:58;;;;;;;22.95;15.93;;;9.40;99.90;;;;;;5014620;28;20068;-81
2023/04/17 06:44:23;;;;;;;26.05;16.80;;;9.50;99.90;;;;;;5012806;28;20371;-81
2023/04/17 06:46:52;;;;;;;29.73;19.27;;;9.40;99.90;;;;;;5015487;28;20033;-80
2023/04/17 06:49:18;;;;;;;24.10;16.42;;;9.40;99.90;;;;;;5019665;28;20176;-81
2023/04/17 06:51:44;;;;;;;23.92;16.17;;;9.40;99.90;;;;;;5014363;28;20022;-81
2023/04/17 06:54:10;;;;;;;23.98;17.30;;;9.40;99.90;;;;;;5020274;28;20025;-82
2023/04/17 06:56:36;;;;;;;25.25;16.98;;;9.40;99.90;;;;;;5014198;28;20025;-83
2023/04/17 06:59:02;;;;;;;24.33;15.95;;;9.50;99.90;;;;;;5013160;28;20083;-80
2023/04/17 07:01:30;;;;;;;27.05;17.92;;;9.50;99.90;;;;;;5014318;28;20037;-80
2023/04/17 07:03:56;;;;;;;26.30;17.60;;;9.50;99.90;;;;;;5014990;28;20029;-80
2023/04/17 07:06:23;;;;;;;28.98;19.33;;;9.50;99.90;;;;;;5014613;28;20077;-80
2023/04/17 07:08:49;;;;;;;26.10;17.52;;;9.50;99.90;;;;;;5019051;28;20033;-79
2023/04/17 07:11:15;;;;;;;25.30;16.48;;;9.50;99.90;;;;;;5014728;28;20025;-79
2023/04/17 07:13:40;;;;;;;25.88;17.42;;;9.50;99.90;;;;;;5014763;28;20448;-80
2023/04/17 07:16:07;;;;;;;24.45;16.00;;;9.60;99.90;;;;;;4996880;28;20056;-81
2023/04/17 07:18:32;;;;;;;25.88;17.23;;;9.60;99.90;;;;;;5013458;28;20025;-82
2023/04/17 07:20:58;;;;;;;27.45;17.85;;;9.70;99.90;;;;;;5015546;28;20038;-82
2023/04/17 07:23:24;;;;;;;26.98;17.85;;;9.70;99.90;;;;;;5012809;28;20039;-80
2023/04/17 07:25:50;;;;;;;29.70;19.10;;;9.70;99.90;;;;;;5018858;28;20053;-84
2023/04/17 07:28:16;;;;;;;28.77;17.95;;;9.80;99.90;;;;;;5012594;28;20057;-81
2023/04/17 07:30:41;;;;;;;24.48;17.23;;;9.80;99.90;;;;;;5000889;28;20038;-81
2023/04/17 07:33:07;;;;;;;25.90;17.35;;;9.80;99.90;;;;;;5012165;28;20442;-79
2023/04/17 07:35:33;;;;;;;29.67;19.95;;;9.90;99.90;;;;;;5010466;28;20057;-81
2023/04/17 07:38:02;;;;;;;28.67;19.42;;;10.00;99.90;;;;;;5021692;28;20025;-82
2023/04/17 07:40:27;;;;;;;29.67;18.27;;;10.10;99.90;;;;;;5010419;28;20128;-79
2023/04/17 07:42:55;;;;;;;25.17;16.98;;;10.20;99.90;;;;;;5011397;28;20045;-79
2023/04/17 07:45:20;;;;;;;29.88;19.50;;;10.30;99.90;;;;;;5016523;28;20775;-80
2023/04/17 07:47:46;;;;;;;28.20;18.95;;;10.40;99.90;;;;;;5017226;28;20026;-80
2023/04/17 07:50:12;;;;;;;26.90;19.77;;;10.50;99.90;;;;;;5012641;28;20101;-83
2023/04/17 07:52:37;;;;;;;37.33;24.63;;;10.50;99.90;;;;;;5017687;28;20304;-83
2023/04/17 07:55:03;;;;;;;33.83;22.25;;;10.40;99.90;;;;;;5018981;28;20075;-82
2023/04/17 07:57:29;;;;;;;33.72;22.75;;;10.40;99.90;;;;;;5015860;28;20037;-82
2023/04/17 07:59:55;;;;;;;31.38;19.67;;;10.40;99.90;;;;;;5019079;28;20516;-83
2023/04/17 08:02:21;;;;;;;28.90;20.23;;;10.40;99.90;;;;;;5016779;28;20018;-83
2023/04/17 08:04:46;;;;;;;29.13;20.40;;;10.40;99.90;;;;;;5019075;28;20036;-86
2023/04/17 08:07:13;;;;;;;27.58;19.70;;;10.40;99.90;;;;;;5022842;28;20031;-82
2023/04/17 08:09:39;;;;;;;29.80;20.80;;;10.50;99.90;;;;;;5018185;28;20104;-83
2023/04/17 08:12:05;;;;;;;32.38;21.95;;;10.40;99.90;;;;;;5016812;28;20491;-83
2023/04/17 08:14:31;;;;;;;32.05;22.27;;;10.50;99.90;;;;;;5017342;28;20710;-83
2023/04/17 08:16:57;;;;;;;30.10;21.90;;;10.50;99.90;;;;;;5014696;28;20111;-82
2023/04/17 08:19:22;;;;;;;31.75;22.52;;;10.50;99.90;;;;;;5022233;28;20053;-81
2023/04/17 08:21:49;;;;;;;31.65;21.80;;;10.50;99.90;;;;;;5022623;28;20539;-87
2023/04/17 08:24:16;;;;;;;31.00;21.40;;;10.50;99.90;;;;;;5018496;28;20036;-80
2023/04/17 08:26:41;;;;;;;32.75;22.38;;;10.60;99.90;;;;;;5018921;28;20384;-82
2023/04/17 08:29:07;;;;;;;31.67;22.00;;;10.60;99.90;;;;;;5014034;28;20029;-82
2023/04/17 08:31:35;;;;;;;29.77;19.60;;;10.60;99.90;;;;;;5017416;28;20025;-83
2023/04/17 08:34:02;;;;;;;29.55;21.23;;;10.70;99.90;;;;;;5017743;28;20035;-82
2023/04/17 08:36:27;;;;;;;28.40;19.63;;;10.70;99.90;;;;;;5014130;28;20111;-81
2023/04/17 08:38:53;;;;;;;29.17;21.08;;;10.80;99.90;;;;;;5016631;28;20544;-82
2023/04/17 08:41:23;;;;;;;33.28;23.45;;;10.80;99.90;;;;;;5013320;28;20038;-83
2023/04/17 08:43:49;;;;;;;32.15;23.05;;;10.90;99.90;;;;;;5015534;28;20044;-82
2023/04/17 08:46:17;;;;;;;30.73;21.40;;;11.00;99.90;;;;;;5017265;28;20498;-82
2023/04/17 08:48:43;;;;;;;27.58;20.00;;;11.10;99.90;;;;;;5016450;28;20100;-82
2023/04/17 08:51:09;;;;;;;32.28;22.38;;;11.20;99.90;;;;;;5018952;28;20437;-82
2023/04/17 08:53:34;;;;;;;31.05;22.23;;;11.40;99.90;;;;;;5013318;28;20026;-81
2023/04/17 08:56:05;;;;;;;30.33;22.15;;;11.60;99.90;;;;;;5011528;28;20547;-80
2023/04/17 08:58:34;;;;;;;32.60;23.90;;;11.80;99.90;;;;;;5012677;28;20028;-83
2023/04/17 09:01:11;;;;;;;28.55;21.17;;;12.00;99.90;;;;;;5013256;28;20052;-79
2023/04/17 09:03:45;;;;;;;27.38;20.40;;;12.20;99.90;;;;;;5013056;28;20056;-82
2023/04/17 09:06:11;;;;;;;26.00;19.92;;;12.60;99.90;;;;;;5012234;28;20025;-83
2023/04/17 09:08:37;;;;;;;27.08;20.13;;;12.80;99.90;;;;;;5027838;28;20029;-82
2023/04/17 09:11:03;;;;;;;32.47;22.67;;;12.90;99.90;;;;;;5016092;28;20032;-82
2023/04/17 09:13:38;;;;;;;29.02;21.60;;;13.00;99.90;;;;;;5018772;28;20038;-83
2023/04/17 09:16:06;;;;;;;25.55;19.15;;;13.10;99.90;;;;;;5016445;28;20047;-82
2023/04/17 09:18:33;;;;;;;27.20;20.40;;;13.20;99.90;;;;;;5014431;28;20534;-83
2023/04/17 09:21:00;;;;;;;31.35;22.95;;;13.30;99.90;;;;;;5013554;28;20041;-84
2023/04/17 09:23:28;;;;;;;30.48;23.10;;;13.30;99.90;;;;;;5015190;28;20065;-83
2023/04/17 09:26:11;;;;;;;27.42;20.38;;;13.30;99.90;;;;;;5014715;28;20036;-81
2023/04/17 09:28:40;;;;;;;28.33;21.05;;;13.30;99.90;;;;;;5026903;28;20038;-80
2023/04/17 09:31:17;;;;;;;26.10;19.85;;;13.30;99.90;;;;;;5015384;28;20034;-83
2023/04/17 09:33:56;;;;;;;25.63;19.27;;;13.30;99.90;;;;;;5017568;28;20104;-83
2023/04/17 09:36:22;;;;;;;26.58;19.15;;;13.40;99.90;;;;;;5020472;28;20736;-83
2023/04/17 09:38:48;;;;;;;24.95;18.30;;;13.40;99.90;;;;;;5001806;28;20072;-82
2023/04/17 09:41:26;;;;;;;24.60;18.27;;;13.50;99.90;;;;;;5015974;28;20030;-81
2023/04/17 09:44:04;;;;;;;24.50;18.42;;;13.50;99.90;;;;;;5019607;28;20041;-82
2023/04/17 09:46:41;;;;;;;23.48;17.60;;;13.50;99.90;;;;;;5020968;28;20179;-82
2023/04/17 09:49:27;;;;;;;24.23;17.45;;;13.50;99.90;;;;;;5019070;28;20046;-82
2023/04/17 09:51:53;;;;;;;22.95;17.15;;;13.50;99.90;;;;;;5021339;28;20030;-79
2023/04/17 09:54:21;;;;;;;21.58;16.60;;;13.50;99.90;;;;;;5015803;28;20400;-80
2023/04/17 09:56:48;;;;;;;22.88;17.25;;;13.60;99.90;;;;;;5014342;28;20155;-80
2023/04/17 09:59:15;;;;;;;20.85;16.10;;;13.70;99.90;;;;;;5024427;28;20052;-83
2023/04/17 10:01:42;;;;;;;22.35;16.27;;;13.90;99.90;;;;;;5021250;28;20048;-83
2023/04/17 10:04:07;;;;;;;21.02;15.50;;;14.10;99.90;;;;;;5021653;28;20030;-83
2023/04/17 10:06:34;;;;;;;21.70;16.15;;;14.20;99.90;;;;;;5023480;28;20369;-84
2023/04/17 10:09:02;;;;;;;23.27;16.88;;;14.20;99.90;;;;;;5021429;28;20200;-83
2023/04/17 10:11:32;;;;;;;19.23;15.38;;;14.20;99.90;;;;;;5021131;28;20035;-82
2023/04/17 10:14:31;;;;;;;19.77;15.23;;;14.30;99.90;;;;;;5024232;28;20147;-82
2023/04/17 10:16:57;;;;;;;20.23;15.05;;;14.30;99.90;;;;;;5017888;28;20049;-82
2023/04/17 10:19:29;;;;;;;18.98;14.88;;;14.30;99.90;;;;;;5019001;28;20032;-83
2023/04/17 10:22:16;;;;;;;21.20;16.35;;;14.40;99.90;;;;;;5021730;28;20030;-82
2023/04/17 10:25:21;;;;;;;19.27;14.85;;;14.50;99.90;;;;;;5024057;28;20034;-83
2023/04/17 10:27:58;;;;;;;18.85;13.80;;;14.80;99.90;;;;;;5009828;28;20029;-83
2023/04/17 10:30:53;;;;;;;17.60;14.13;;;15.20;99.90;;;;;;5022114;28;20103;-84
2023/04/17 10:33:21;;;;;;;19.25;15.15;;;15.70;99.90;;;;;;5034665;28;20452;-81
2023/04/17 10:35:47;;;;;;;16.92;13.02;;;16.30;99.90;;;;;;5020989;28;20395;-84
2023/04/17 10:38:15;;;;;;;15.77;11.77;;;17.10;99.90;;;;;;5016457;28;20025;-80
2023/04/17 10:40:42;;;;;;;15.93;12.60;;;18.00;99.90;;;;;;5016948;28;20072;-82
2023/04/17 10:43:19;;;;;;;13.45;11.25;;;19.20;99.90;;;;;;5016489;28;20032;-82
2023/04/17 10:45:57;;;;;;;14.48;11.73;;;19.90;99.90;;;;;;5018142;28;20022;-83
2023/04/17 10:48:55;;;;;;;15.38;12.00;;;20.00;99.90;;;;;;5015178;28;20028;-81
2023/04/17 10:51:20;;;;;;;14.75;11.85;;;19.60;99.90;;;;;;5014273;28;20118;-84
2023/04/17 10:53:51;;;;;;;13.73;11.82;;;19.20;99.90;;;;;;5016146;28;20038;-83
2023/04/17 10:56:22;;;;;;;14.60;11.70;;;18.80;99.90;;;;;;5015553;28;20107;-85
2023/04/17 10:59:15;;;;;;;14.48;11.52;;;18.40;99.90;;;;;;5014446;28;20056;-83
2023/04/17 11:01:47;;;;;;;12.38;9.90;;;18.00;99.90;;;;;;5017868;28;20981;-82
2023/04/17 11:04:29;;;;;;;14.13;10.80;;;17.80;99.90;;;;;;5016796;28;20026;-83
2023/04/17 11:06:55;;;;;;;15.98;11.35;;;17.90;99.90;;;;;;5015309;28;20071;-82
2023/04/17 11:09:22;;;;;;;16.65;10.93;;;18.10;99.90;;;;;;5012686;28;20026;-83
2023/04/17 11:11:48;;;;;;;13.73;9.32;;;18.40;99.90;;;;;;5019017;28;20129;-84
2023/04/17 11:14:16;;;;;;;11.95;9.05;;;18.70;99.90;;;;;;5020504;28;20120;-83
2023/04/17 11:16:43;;;;;;;11.50;8.35;;;19.00;99.90;;;;;;5014725;28;20040;-83
2023/04/17 11:19:11;;;;;;;9.85;8.15;;;19.50;99.90;;;;;;5015124;28;20030;-83
2023/04/17 11:21:52;;;;;;;9.50;7.45;;;20.20;99.90;;;;;;5019326;28;20041;-83
2023/04/17 11:24:31;;;;;;;9.45;7.15;;;21.30;99.90;;;;;;5030375;28;20079;-84
2023/04/17 11:26:58;;;;;;;10.15;8.52;;;22.10;99.90;;;;;;5013891;28;20478;-83
2023/04/17 11:29:25;;;;;;;10.77;7.13;;;22.30;99.90;;;;;;5014129;28;20025;-83
2023/04/17 11:31:56;;;;;;;11.18;8.85;;;22.50;99.90;;;;;;5015546;28;20108;-81
2023/04/17 11:34:22;;;;;;;9.95;7.35;;;22.80;99.90;;;;;;5015745;28;20040;-82
2023/04/17 11:36:58;;;;;;;10.93;7.82;;;22.80;99.90;;;;;;5016318;28;20025;-81
2023/04/17 11:39:27;;;;;;;12.70;9.02;;;22.80;99.90;;;;;;5013307;28;20623;-84
2023/04/17 11:41:53;;;;;;;11.35;9.10;;;22.90;99.90;;;;;;5016993;28;20037;-78
2023/04/17 11:44:19;;;;;;;9.43;8.00;;;23.10;99.90;;;;;;5012926;28;20431;-83
2023/04/17 11:46:53;;;;;;;12.82;9.13;;;23.30;99.90;;;;;;5024595;28;20052;-79
2023/04/17 11:49:26;;;;;;;11.27;9.20;;;23.80;99.90;;;;;;5015084;28;20025;-82
2023/04/17 11:51:52;;;;;;;11.85;10.02;;;24.00;99.90;;;;;;5015151;28;20032;-81
2023/04/17 11:54:26;;;;;;;10.35;8.05;;;23.80;99.90;;;;;;5023799;28;20022;-80
2023/04/17 11:57:08;;;;;;;11.35;8.13;;;23.60;99.90;;;;;;5017923;28;20074;-82
2023/04/17 11:59:36;;;;;;;9.55;7.68;;;24.10;99.90;;;;;;5010806;28;20022;-83
2023/04/17 12:02:02;;;;;;;11.82;8.02;;;24.00;99.80;;;;;;5017874;28;20590;-82
2023/04/17 12:04:32;;;;;;;9.38;7.93;;;24.00;99.40;;;;;;5013420;28;20021;-82
2023/04/17 12:06:58;;;;;;;9.80;7.65;;;24.10;99.10;;;;;;5014443;28;20033;-83
2023/04/17 12:09:26;;;;;;;8.15;6.85;;;24.20;98.90;;;;;;5016917;28;20074;-83
2023/04/17 12:11:52;;;;;;;8.40;6.70;;;24.60;99.00;;;;;;5015459;28;20073;-82
2023/04/17 12:14:18;;;;;;;9.38;6.95;;;25.00;98.30;;;;;;5013942;28;20105;-82
2023/04/17 12:16:48;;;;;;;9.52;6.20;;;25.20;97.90;;;;;;5012355;28;20365;-83
2023/04/17 12:19:15;;;;;;;8.63;7.22;;;25.70;97.70;;;;;;5013327;28;20056;-80
2023/04/17 12:21:42;;;;;;;8.40;7.07;;;26.00;97.10;;;;;;5016031;28;20033;-84
2023/04/17 12:24:08;;;;;;;8.80;6.32;;;26.00;96.30;;;;;;5017617;28;20088;-80
2023/04/17 12:26:34;;;;;;;9.40;6.95;;;26.00;96.10;;;;;;5013990;28;20484;-81
2023/04/17 12:29:00;;;;;;;8.77;6.65;;;26.20;95.90;;;;;;5011861;28;20032;-81
2023/04/17 12:31:25;;;;;;;10.10;6.30;;;26.40;95.60;;;;;;5012563;28;20014;-83
2023/04/17 12:33:51;;;;;;;7.43;6.55;;;26.40;94.60;;;;;;5018252;28;20104;-83
2023/04/17 12:36:17;;;;;;;8.90;7.47;;;25.90;94.30;;;;;;5013405;28;20522;-83